This is the latest recevied weather packets stored in our database for station/object W0VI. If no packets are shown the sender has not sent any weather packets the latest 10 day(s).
| Time | Temp. | Humidity | Pressure | Rain* | Wind** | Luminosity | Snow |
|---|---|---|---|---|---|---|---|
| 1787402774 | 16.67° C | 97% | 1019.6 hPa | 0 mm | - | 44 W/m² | - |
| 1787402473 | 16.67° C | 97% | 1019.3 hPa | 0 mm | - | 50 W/m² | - |
| 1787402168 | 16.11° C | 98% | 1019.5 hPa | 0 mm | - | 40 W/m² | - |
| 1787401863 | 16.11° C | 98% | 1019.4 hPa | 0 mm | - | 37 W/m² | - |
| 1787401559 | 16.11° C | 98% | 1019.3 hPa | 0 mm | - | 33 W/m² | - |
| 1787401260 | 16.11° C | 98% | 1019.4 hPa | 0 mm | - | 27 W/m² | - |
| 1787400956 | 16.11° C | 98% | 1019.3 hPa | 0 mm | - | 25 W/m² | - |
| 1787400656 | 15.56° C | 98% | 1019.2 hPa | 0 mm | - | 23 W/m² | - |
| 1787400351 | 15.56° C | 98% | 1019.2 hPa | 0 mm | - | 20 W/m² | - |
| 1787400050 | 15.56° C | 98% | 1019 hPa | 0 mm | - | 18 W/m² | - |
| 1787399748 | 15.56° C | 99% | 1019 hPa | 0 mm | - | 15 W/m² | - |
| 1787399444 | 15.56° C | 99% | 1019.1 hPa | 0 mm | - | 13 W/m² | - |
| 1787399143 | 15.56° C | 99% | 1019 hPa | 0 mm | - | 11 W/m² | - |
| 1787398838 | 15.56° C | 99% | 1018.9 hPa | 0 mm | - | 8 W/m² | - |
| 1787398534 | 15.56° C | 99% | 1018.8 hPa | 0 mm | - | 5 W/m² | - |
| 1787398230 | 15.56° C | 99% | 1018.5 hPa | 0 mm | - | 3 W/m² | - |
| 1787397920 | 15.56° C | 99% | 1018.6 hPa | 0 mm | - | 1 W/m² | - |
| 1787397615 | 15.56° C | 99% | 1018.5 hPa | 0 mm | - | 0 W/m² | - |
| 1787397314 | 15.56° C | 98% | 1018.4 hPa | 0 mm | - | 0 W/m² | - |
| 1787397014 | 15.56° C | 98% | 1018.3 hPa | 0 mm | - | 0 W/m² | - |
| 1787396710 | 15.56° C | 98% | 1018.3 hPa | 0 mm | - | 0 W/m² | - |
| 1787396406 | 15.56° C | 98% | 1018.2 hPa | 0 mm | - | 0 W/m² | - |
| 1787396105 | 15.56° C | 98% | 1018.4 hPa | 0 mm | - | 0 W/m² | - |
| 1787395800 | 15.56° C | 98% | 1018.1 hPa | 0 mm | - | 0 W/m² | - |
| 1787395495 | 15.56° C | 98% | 1018 hPa | 0 mm | - | 0 W/m² | - |
* Rain latest hour (hover to see other rain measurements)
** Current wind speed in m/s (hover to see current wind gust speed)